x

Long Island - 30 Nm South Of Islip, Ny (44025) Wave Buoy

6:50pm - Tue 19th Jun 2018 All times are EDT. -4 hours from GMT.

  • Sig Wave height 2.3ft
  • Swell Direction
  • Peak Period 6s
  • Average Period 5s
  • Wind
    7mph, 9mph gusts
  • Sea Temp 72°f
  • Air Temp 77°f
  • Sea Pressure 1008.6mb
  • Long Island - 30 Nm South Of Islip, Ny
  • Long Island - 30 Nm South Of Islip, Ny

More Historic Weather Station data

Upgrade to MSW Pro to gain access to the past 30 days of data for over 8000 Wavebouys and Weather Stations around the globe.

Join

Comparision Forecast

View Surf forecast
   
Tue 06/19 6:50pm 2.5ft 6s 5s 7 9 mph 1008.6mb 72f 77f
5:50pm 2.5ft 7s 5s  -  2 mph 1008.8mb 70f 78f
4:50pm 2.5ft 6s 5s 2 2 mph 1008.9mb 71f 77f
3:50pm 3ft 6s 5s 4 7 mph 1008.6mb 70f 75f
2:50pm 2.5ft 7s 5s 7 7 mph 1008.8mb 69f 73f
1:50pm 3ft 6s 5s 7 9 mph 1008.7mb 68f 72f
12:50pm 3.5ft 6s 5s 7 9 mph 1008.7mb 67f 72f
11:50am 3ft 6s 5s 7 7 mph 1008.7mb 67f 71f
10:50am 3ft 7s 5s 9 11 mph 1008.2mb 67f 70f
9:50am 3.5ft 6s 5s 11 13 mph 1007.8mb 66f 71f
8:50am 3.5ft 6s 5s 13 16 mph 1007.9mb 66f 71f
7:50am 3.5ft 5s 5s 11 13 mph 1007.6mb 66f 70f
6:50am 3.5ft 6s 5s 13 16 mph 1007.3mb 66f 70f
5:50am 3.5ft 5s 5s 13 13 mph 1006.7mb 66f 70f
4:50am 3.5ft 5s 5s 13 16 mph 1006.1mb 66f 69f
3:50am 3.5ft 5s 4s 13 16 mph 1006.4mb 66f 69f
2:50am 3.5ft 5s 4s 20 22 mph 1006.8mb 65f 70f
1:50am 3.5ft 5s 4s 18 18 mph 1007.2mb 65f 69f
12:50am 3.5ft 5s 4s 18 20 mph 1007.8mb 65f 69f
Mon 06/18 11:50pm 3.5ft 5s 4s 18 20 mph 1008.7mb 65f 69f
10:50pm 4ft 5s 4s 22 27 mph 1009.8mb 65f 69f
9:50pm 3.5ft 5s 4s 20 22 mph 1010.7mb 65f 68f
8:50pm 3.5ft 5s 4s 20 22 mph 1010mb 66f 68f
7:50pm 4ft 5s 4s 22 25 mph 1010.1mb 66f 69f
6:50pm 3.5ft 4s 4s 22 25 mph 1010.1mb 66f 70f
5:50pm 3.5ft 4s 4s 22 27 mph 1011.1mb 66f 70f
4:50pm 3.5ft 4s 4s 22 25 mph 1012.1mb 67f 70f
3:50pm 2.5ft 4s 4s 20 25 mph 1012.9mb 67f 69f
2:50pm 2.5ft 4s 4s 18 20 mph 1014.1mb 67f 69f
1:50pm 2.5ft 3s 4s 18 20 mph 1015mb 67f 68f
12:50pm 2ft 3s 3s 16 18 mph 1015.6mb 67f 69f
11:50am 1.6ft 8s 4s 13 16 mph 1016.2mb 67f 68f
10:50am 1.6ft 9s 4s 13 16 mph 1016.5mb 66f 68f
9:50am 1.6ft 8s 4s 13 13 mph 1016.9mb 66f 68f
8:50am 1.3ft 9s 4s 11 11 mph 1017.5mb 65f 68f
7:50am 1.6ft 9s 4s 11 13 mph 1017.8mb 65f 68f
6:50am 1.6ft 4s 4s 11 11 mph 1018.2mb 65f 68f
5:50am 1.6ft 4s 4s 7 7 mph 1018.5mb 65f 67f
4:50am 1.6ft 4s 4s 4 7 mph 1018.4mb 65f 67f
3:50am 1.6ft 3s 4s 7 7 mph 1018.6mb 66f 67f
2:50am 1.6ft 4s 4s 11 13 mph 1018.2mb 66f 68f
1:50am 1.6ft 8s 4s 11 13 mph 1018.2mb 66f 68f
12:50am 1.6ft 9s 4s 11 13 mph 1018.5mb 66f 68f
Sun 06/17 11:50pm 1.6ft 8s 4s 13 16 mph 1018.3mb 67f 69f
10:50pm 1.3ft 8s 4s 13 16 mph 1018.4mb 67f 69f
9:50pm 1.3ft 8s 4s 13 16 mph 1018.5mb 67f 69f
8:50pm 1.3ft 8s 4s 11 13 mph 1018.5mb 68f 70f
7:50pm 1.3ft 8s 5s 11 13 mph 1018.7mb 68f 70f
6:50pm 1.3ft 8s 5s 11 13 mph 1018.8mb 69f 70f
5:50pm 1.3ft 8s 5s 9 9 mph 1019mb 69f 71f
4:50pm 1.3ft 8s 5s 9 9 mph 1018.8mb 69f 71f
3:50pm 1.3ft 8s 5s 7 7 mph 1018.8mb 69f 70f
2:50pm 1.3ft 9s 4s 7 7 mph 1018.7mb 68f 70f
1:50pm 1.3ft 9s 5s 4 7 mph 1018.7mb 68f 70f
12:50pm 1.3ft 9s 5s 2 4 mph 1019mb 68f 70f
11:50am 1.3ft 8s 5s 2 2 mph 1019.4mb 67f 68f
10:50am 1.3ft 8s 5s 4 7 mph 1019.4mb 66f 67f
9:50am 1.3ft 8s 4s 4 7 mph 1018.8mb 65f 67f
8:50am 1.3ft 9s 4s 7 7 mph 1018.7mb 65f 66f
7:50am 1.3ft 9s 4s 7 7 mph 1018.4mb 65f 66f
6:50am 1.3ft 9s 4s 4 7 mph 1017.8mb 64f 66f
5:50am 1.3ft 8s 4s 7 7 mph 1017.5mb 64f 66f
4:50am 1.6ft 4s 4s 7 9 mph 1017.1mb 64f 66f
3:50am 1.6ft 4s 4s 9 11 mph 1017.1mb 64f 66f
2:50am 1.6ft 3s 4s 11 13 mph 1016.8mb 65f 66f
1:50am 1.6ft 3s 4s 11 13 mph 1017.3mb 65f 67f
12:50am 1.6ft 8s 4s 11 11 mph 1017.4mb 65f 67f
Sat 06/16 11:50pm 1.6ft 8s 4s 11 13 mph 1017.1mb 65f 68f
10:50pm 1.6ft 9s 4s 11 11 mph 1017.1mb 66f 68f
9:50pm 1.6ft 8s 4s 13 16 mph 1016.9mb 66f 69f
8:50pm 1.6ft 8s 4s 11 13 mph 1016.3mb 66f 68f
7:50pm 1.3ft 9s 4s 11 13 mph 1016.1mb 66f 68f
6:50pm 1.3ft 8s 4s 13 16 mph 1016mb 66f 68f
5:50pm 1.3ft 8s 5s 11 16 mph 1016mb 67f 68f
4:50pm 1.3ft 8s 5s 9 9 mph 1016.1mb 67f 68f
3:50pm 1.3ft 8s 5s 9 9 mph 1016.3mb 66f 68f
2:50pm 1.3ft 9s 5s 9 11 mph 1016.2mb 66f 67f
1:50pm 1.3ft 9s 5s 9 9 mph 1016.5mb 66f 67f
12:50pm 1.3ft 9s 5s 7 7 mph 1016.6mb 66f 66f
11:50am 1.3ft 8s 5s 4 7 mph 1017.2mb 65f 66f
10:50am 1.6ft 9s 4s 4 7 mph 1017.3mb 64f 65f
9:50am 1.3ft 9s 5s 7 7 mph 1017.3mb 64f 65f
8:50am 1.3ft 9s 4s 9 11 mph 1017.6mb 64f 65f
7:50am 1.3ft 8s 5s 11 13 mph 1017.4mb 64f 65f
6:50am 1.3ft 8s 6s 7 7 mph 1017.3mb 63f 65f
5:50am 1.3ft 8s 6s 9 9 mph 1017.1mb 63f 64f
4:50am 1.6ft 9s 6s 9 11 mph 1017.2mb 63f 64f
3:50am 1.3ft 8s 6s 9 11 mph 1016.8mb 63f 64f
2:50am 1.3ft 9s 6s 9 11 mph 1016.8mb 63f 64f
1:50am 1.3ft 8s 6s 7 7 mph 1016.3mb 63f 64f
12:50am 1.3ft 9s 6s 4 4 mph 1015.4mb 63f 64f